sensor_id;sensor_type;location;lat;lon;timestamp;pressure;altitude;pressure_sealevel;temperature;humidity
56671;BME280;42545;50.054;8.306;2023-04-26T00:00:41;100126.19;;;3.81;83.31
56671;BME280;42545;50.054;8.306;2023-04-26T00:03:08;100139.28;;;3.82;83.89
56671;BME280;42545;50.054;8.306;2023-04-26T00:05:37;100138.28;;;3.79;84.34
56671;BME280;42545;50.054;8.306;2023-04-26T00:08:05;100138.13;;;3.76;84.18
56671;BME280;42545;50.054;8.306;2023-04-26T00:10:33;100144.91;;;3.72;84.10
56671;BME280;42545;50.054;8.306;2023-04-26T00:13:02;100138.63;;;3.67;84.26
56671;BME280;42545;50.054;8.306;2023-04-26T00:15:29;100140.25;;;3.65;84.24
56671;BME280;42545;50.054;8.306;2023-04-26T00:17:56;100139.28;;;3.63;84.93
56671;BME280;42545;50.054;8.306;2023-04-26T00:20:23;100144.47;;;3.61;85.11
56671;BME280;42545;50.054;8.306;2023-04-26T00:22:49;100147.06;;;3.61;85.42
56671;BME280;42545;50.054;8.306;2023-04-26T00:25:17;100147.81;;;3.59;85.20
56671;BME280;42545;50.054;8.306;2023-04-26T00:27:46;100147.88;;;3.60;86.21
56671;BME280;42545;50.054;8.306;2023-04-26T00:30:13;100154.81;;;3.60;86.40
56671;BME280;42545;50.054;8.306;2023-04-26T00:32:40;100144.00;;;3.52;85.79
56671;BME280;42545;50.054;8.306;2023-04-26T00:35:08;100140.31;;;3.47;85.79
56671;BME280;42545;50.054;8.306;2023-04-26T00:37:35;100140.78;;;3.38;85.88
56671;BME280;42545;50.054;8.306;2023-04-26T00:40:06;100138.56;;;3.28;86.19
56671;BME280;42545;50.054;8.306;2023-04-26T00:42:36;100138.03;;;3.17;86.65
56671;BME280;42545;50.054;8.306;2023-04-26T00:45:04;100141.88;;;3.06;86.59
56671;BME280;42545;50.054;8.306;2023-04-26T00:47:32;100148.44;;;2.98;87.47
56671;BME280;42545;50.054;8.306;2023-04-26T00:50:00;100145.44;;;2.90;87.99
56671;BME280;42545;50.054;8.306;2023-04-26T00:52:27;100148.72;;;2.86;88.20
56671;BME280;42545;50.054;8.306;2023-04-26T00:54:54;100148.34;;;2.78;88.50
56671;BME280;42545;50.054;8.306;2023-04-26T00:57:23;100143.00;;;2.75;89.22
56671;BME280;42545;50.054;8.306;2023-04-26T00:59:52;100142.78;;;2.71;89.70
56671;BME280;42545;50.054;8.306;2023-04-26T01:02:20;100142.63;;;2.67;89.82
56671;BME280;42545;50.054;8.306;2023-04-26T01:04:47;100144.94;;;2.61;89.53
56671;BME280;42545;50.054;8.306;2023-04-26T01:07:14;100142.84;;;2.54;89.23
56671;BME280;42545;50.054;8.306;2023-04-26T01:09:41;100155.31;;;2.43;89.15
56671;BME280;42545;50.054;8.306;2023-04-26T01:12:10;100149.47;;;2.31;89.18
56671;BME280;42545;50.054;8.306;2023-04-26T01:14:38;100136.75;;;2.19;89.11
56671;BME280;42545;50.054;8.306;2023-04-26T01:17:07;100142.47;;;2.12;89.53
56671;BME280;42545;50.054;8.306;2023-04-26T01:19:34;100150.97;;;2.09;90.72
56671;BME280;42545;50.054;8.306;2023-04-26T01:22:02;100142.19;;;2.07;90.98
56671;BME280;42545;50.054;8.306;2023-04-26T01:24:31;100141.91;;;2.01;90.97
56671;BME280;42545;50.054;8.306;2023-04-26T01:26:59;100144.34;;;1.98;92.03
56671;BME280;42545;50.054;8.306;2023-04-26T01:29:26;100151.16;;;1.96;91.95
56671;BME280;42545;50.054;8.306;2023-04-26T01:31:56;100149.22;;;1.92;91.41
56671;BME280;42545;50.054;8.306;2023-04-26T01:34:23;100152.41;;;1.86;91.67
56671;BME280;42545;50.054;8.306;2023-04-26T01:36:49;100147.78;;;1.81;91.67
56671;BME280;42545;50.054;8.306;2023-04-26T01:39:16;100151.75;;;1.74;91.84
56671;BME280;42545;50.054;8.306;2023-04-26T01:41:45;100160.22;;;1.70;91.79
56671;BME280;42545;50.054;8.306;2023-04-26T01:44:19;100154.66;;;1.64;92.30
56671;BME280;42545;50.054;8.306;2023-04-26T01:46:45;100156.06;;;1.57;92.54
56671;BME280;42545;50.054;8.306;2023-04-26T01:49:12;100157.50;;;1.52;92.60
56671;BME280;42545;50.054;8.306;2023-04-26T01:51:38;100156.44;;;1.48;93.11
56671;BME280;42545;50.054;8.306;2023-04-26T01:54:05;100162.69;;;1.36;93.51
56671;BME280;42545;50.054;8.306;2023-04-26T01:56:32;100157.22;;;1.31;94.01
56671;BME280;42545;50.054;8.306;2023-04-26T01:59:00;100161.28;;;1.26;94.34
56671;BME280;42545;50.054;8.306;2023-04-26T02:01:27;100161.03;;;1.21;94.62
56671;BME280;42545;50.054;8.306;2023-04-26T02:03:54;100164.09;;;1.14;94.42
56671;BME280;42545;50.054;8.306;2023-04-26T02:06:21;100167.25;;;1.08;94.74
56671;BME280;42545;50.054;8.306;2023-04-26T02:08:48;100159.38;;;1.07;95.28
56671;BME280;42545;50.054;8.306;2023-04-26T02:11:15;100162.63;;;1.03;95.27
56671;BME280;42545;50.054;8.306;2023-04-26T02:13:42;100163.16;;;0.97;95.40
56671;BME280;42545;50.054;8.306;2023-04-26T02:16:10;100157.03;;;0.96;96.12
56671;BME280;42545;50.054;8.306;2023-04-26T02:18:36;100161.28;;;0.94;96.07
56671;BME280;42545;50.054;8.306;2023-04-26T02:21:06;100162.69;;;0.89;96.44
56671;BME280;42545;50.054;8.306;2023-04-26T02:23:33;100172.31;;;0.90;96.78
56671;BME280;42545;50.054;8.306;2023-04-26T02:26:02;100160.09;;;0.89;97.12
56671;BME280;42545;50.054;8.306;2023-04-26T02:28:29;100158.53;;;0.91;97.79
56671;BME280;42545;50.054;8.306;2023-04-26T02:30:56;100162.25;;;0.96;97.35
56671;BME280;42545;50.054;8.306;2023-04-26T02:33:25;100161.53;;;0.99;98.10
56671;BME280;42545;50.054;8.306;2023-04-26T02:35:51;100163.31;;;1.00;97.82
56671;BME280;42545;50.054;8.306;2023-04-26T02:38:18;100162.53;;;1.01;98.56
56671;BME280;42545;50.054;8.306;2023-04-26T02:40:45;100158.28;;;1.03;98.18
56671;BME280;42545;50.054;8.306;2023-04-26T02:43:13;100157.41;;;1.03;98.62
56671;BME280;42545;50.054;8.306;2023-04-26T02:45:40;100160.09;;;1.04;99.04
56671;BME280;42545;50.054;8.306;2023-04-26T02:48:08;100158.28;;;1.03;98.89
56671;BME280;42545;50.054;8.306;2023-04-26T02:50:36;100148.69;;;1.02;98.71
56671;BME280;42545;50.054;8.306;2023-04-26T02:53:03;100159.19;;;1.04;98.96
56671;BME280;42545;50.054;8.306;2023-04-26T02:55:30;100158.38;;;1.05;99.54
56671;BME280;42545;50.054;8.306;2023-04-26T02:57:57;100156.69;;;1.05;99.18
56671;BME280;42545;50.054;8.306;2023-04-26T03:00:24;100158.28;;;1.03;99.31
56671;BME280;42545;50.054;8.306;2023-04-26T03:02:51;100155.59;;;1.02;98.98
56671;BME280;42545;50.054;8.306;2023-04-26T03:05:18;100155.28;;;0.95;99.17
56671;BME280;42545;50.054;8.306;2023-04-26T03:07:47;100156.16;;;0.96;98.69
56671;BME280;42545;50.054;8.306;2023-04-26T03:10:14;100149.81;;;0.91;98.76
56671;BME280;42545;50.054;8.306;2023-04-26T03:12:40;100152.25;;;0.88;98.59
56671;BME280;42545;50.054;8.306;2023-04-26T03:15:07;100145.06;;;0.84;99.08
56671;BME280;42545;50.054;8.306;2023-04-26T03:17:34;100148.41;;;0.81;98.64
56671;BME280;42545;50.054;8.306;2023-04-26T03:20:01;100145.72;;;0.80;99.52
56671;BME280;42545;50.054;8.306;2023-04-26T03:22:29;100138.91;;;0.82;99.91
56671;BME280;42545;50.054;8.306;2023-04-26T03:24:57;100143.03;;;0.78;99.59
56671;BME280;42545;50.054;8.306;2023-04-26T03:27:24;100145.53;;;0.76;99.92
56671;BME280;42545;50.054;8.306;2023-04-26T03:29:51;100142.78;;;0.73;99.48
56671;BME280;42545;50.054;8.306;2023-04-26T03:32:18;100143.38;;;0.69;99.70
56671;BME280;42545;50.054;8.306;2023-04-26T03:34:44;100144.22;;;0.68;99.71
56671;BME280;42545;50.054;8.306;2023-04-26T03:37:14;100144.13;;;0.67;100.00
56671;BME280;42545;50.054;8.306;2023-04-26T03:39:40;100142.69;;;0.72;100.00
56671;BME280;42545;50.054;8.306;2023-04-26T03:42:08;100145.19;;;0.70;100.00
56671;BME280;42545;50.054;8.306;2023-04-26T03:44:35;100145.84;;;0.66;100.00
56671;BME280;42545;50.054;8.306;2023-04-26T03:47:02;100147.53;;;0.66;100.00
56671;BME280;42545;50.054;8.306;2023-04-26T03:49:29;100144.84;;;0.64;100.00
56671;BME280;42545;50.054;8.306;2023-04-26T03:51:56;100150.06;;;0.64;100.00
56671;BME280;42545;50.054;8.306;2023-04-26T03:54:23;100145.66;;;0.63;100.00
56671;BME280;42545;50.054;8.306;2023-04-26T03:56:49;100150.06;;;0.64;100.00
56671;BME280;42545;50.054;8.306;2023-04-26T03:59:19;100148.16;;;0.62;100.00
56671;BME280;42545;50.054;8.306;2023-04-26T04:01:46;100143.88;;;0.62;100.00
56671;BME280;42545;50.054;8.306;2023-04-26T04:04:13;100140.28;;;0.60;100.00
56671;BME280;42545;50.054;8.306;2023-04-26T04:06:42;100134.00;;;0.56;100.00
56671;BME280;42545;50.054;8.306;2023-04-26T04:09:08;100143.59;;;0.57;100.00
56671;BME280;42545;50.054;8.306;2023-04-26T04:11:35;100138.41;;;0.57;100.00
56671;BME280;42545;50.054;8.306;2023-04-26T04:14:01;100141.88;;;0.58;100.00
56671;BME280;42545;50.054;8.306;2023-04-26T04:16:29;100143.69;;;0.59;100.00
56671;BME280;42545;50.054;8.306;2023-04-26T04:18:56;100147.28;;;0.61;100.00
56671;BME280;42545;50.054;8.306;2023-04-26T04:21:24;100142.25;;;0.64;100.00
56671;BME280;42545;50.054;8.306;2023-04-26T04:23:52;100150.28;;;0.69;100.00
56671;BME280;42545;50.054;8.306;2023-04-26T04:26:19;100148.59;;;0.69;100.00
56671;BME280;42545;50.054;8.306;2023-04-26T04:28:47;100153.88;;;0.71;100.00
56671;BME280;42545;50.054;8.306;2023-04-26T04:31:13;100153.97;;;0.72;100.00
56671;BME280;42545;50.054;8.306;2023-04-26T04:33:43;100161.06;;;0.75;100.00
56671;BME280;42545;50.054;8.306;2023-04-26T04:36:09;100160.50;;;0.81;100.00
56671;BME280;42545;50.054;8.306;2023-04-26T04:38:36;100162.66;;;0.88;100.00
56671;BME280;42545;50.054;8.306;2023-04-26T04:41:03;100164.84;;;0.96;100.00
56671;BME280;42545;50.054;8.306;2023-04-26T04:43:30;100160.81;;;1.02;100.00
56671;BME280;42545;50.054;8.306;2023-04-26T04:45:56;100165.44;;;1.07;100.00
56671;BME280;42545;50.054;8.306;2023-04-26T04:48:23;100177.88;;;1.13;100.00
56671;BME280;42545;50.054;8.306;2023-04-26T04:50:51;100174.69;;;1.17;100.00
56671;BME280;42545;50.054;8.306;2023-04-26T04:53:18;100181.09;;;1.24;100.00
56671;BME280;42545;50.054;8.306;2023-04-26T04:55:45;100183.06;;;1.28;100.00
56671;BME280;42545;50.054;8.306;2023-04-26T04:58:13;100183.22;;;1.31;100.00
56671;BME280;42545;50.054;8.306;2023-04-26T05:00:41;100176.47;;;1.34;100.00
56671;BME280;42545;50.054;8.306;2023-04-26T05:03:07;100180.97;;;1.37;100.00
56671;BME280;42545;50.054;8.306;2023-04-26T05:05:35;100181.03;;;1.39;100.00
56671;BME280;42545;50.054;8.306;2023-04-26T05:08:03;100186.50;;;1.43;100.00
56671;BME280;42545;50.054;8.306;2023-04-26T05:10:32;100176.38;;;1.48;100.00
56671;BME280;42545;50.054;8.306;2023-04-26T05:12:59;100180.09;;;1.53;100.00
56671;BME280;42545;50.054;8.306;2023-04-26T05:15:26;100183.94;;;1.60;100.00
56671;BME280;42545;50.054;8.306;2023-04-26T05:17:53;100179.97;;;1.66;100.00
56671;BME280;42545;50.054;8.306;2023-04-26T05:20:20;100184.59;;;1.72;100.00
56671;BME280;42545;50.054;8.306;2023-04-26T05:22:46;100181.34;;;1.76;100.00
56671;BME280;42545;50.054;8.306;2023-04-26T05:25:14;100186.28;;;1.88;100.00
56671;BME280;42545;50.054;8.306;2023-04-26T05:27:43;100189.22;;;1.94;100.00
56671;BME280;42545;50.054;8.306;2023-04-26T05:30:10;100191.44;;;2.03;100.00
56671;BME280;42545;50.054;8.306;2023-04-26T05:32:38;100198.75;;;2.10;99.36
56671;BME280;42545;50.054;8.306;2023-04-26T05:35:06;100195.56;;;2.16;99.50
56671;BME280;42545;50.054;8.306;2023-04-26T05:37:33;100195.78;;;2.20;99.32
56671;BME280;42545;50.054;8.306;2023-04-26T05:40:00;100195.13;;;2.24;99.39
56671;BME280;42545;50.054;8.306;2023-04-26T05:42:28;100200.81;;;2.34;99.53
56671;BME280;42545;50.054;8.306;2023-04-26T05:44:56;100200.41;;;2.42;99.41
56671;BME280;42545;50.054;8.306;2023-04-26T05:47:23;100204.38;;;2.52;99.00
56671;BME280;42545;50.054;8.306;2023-04-26T05:49:50;100205.94;;;2.66;99.34
56671;BME280;42545;50.054;8.306;2023-04-26T05:52:17;100211.06;;;2.81;99.42
56671;BME280;42545;50.054;8.306;2023-04-26T05:54:44;100215.28;;;2.97;98.73
56671;BME280;42545;50.054;8.306;2023-04-26T05:57:10;100224.59;;;3.10;97.31
56671;BME280;42545;50.054;8.306;2023-04-26T05:59:39;100225.44;;;3.27;96.72
56671;BME280;42545;50.054;8.306;2023-04-26T06:02:07;100225.81;;;3.53;94.62
56671;BME280;42545;50.054;8.306;2023-04-26T06:04:34;100224.91;;;3.90;92.91
56671;BME280;42545;50.054;8.306;2023-04-26T06:07:01;100227.03;;;4.18;90.51
56671;BME280;42545;50.054;8.306;2023-04-26T06:09:30;100222.69;;;4.38;87.73
56671;BME280;42545;50.054;8.306;2023-04-26T06:11:57;100229.34;;;4.51;87.01
56671;BME280;42545;50.054;8.306;2023-04-26T06:14:24;100230.75;;;4.63;86.57
56671;BME280;42545;50.054;8.306;2023-04-26T06:17:00;100228.28;;;4.67;85.80
56671;BME280;42545;50.054;8.306;2023-04-26T06:19:27;100235.41;;;4.71;85.70
56671;BME280;42545;50.054;8.306;2023-04-26T06:21:54;100232.81;;;4.71;84.46
56671;BME280;42545;50.054;8.306;2023-04-26T06:24:22;100235.41;;;4.71;85.17
56671;BME280;42545;50.054;8.306;2023-04-26T06:26:48;100230.19;;;4.71;84.56
56671;BME280;42545;50.054;8.306;2023-04-26T06:29:15;100238.03;;;4.71;84.53
56671;BME280;42545;50.054;8.306;2023-04-26T06:31:43;100242.44;;;4.72;84.72
56671;BME280;42545;50.054;8.306;2023-04-26T06:34:12;100235.56;;;4.74;83.99
56671;BME280;42545;50.054;8.306;2023-04-26T06:36:38;100236.66;;;4.79;84.51
56671;BME280;42545;50.054;8.306;2023-04-26T06:39:05;100238.56;;;4.83;83.56
56671;BME280;42545;50.054;8.306;2023-04-26T06:41:32;100236.09;;;4.86;82.95
56671;BME280;42545;50.054;8.306;2023-04-26T06:43:58;100236.31;;;4.92;82.30
56671;BME280;42545;50.054;8.306;2023-04-26T06:46:25;100231.38;;;4.98;82.03
56671;BME280;42545;50.054;8.306;2023-04-26T06:48:53;100228.19;;;5.06;82.72
56671;BME280;42545;50.054;8.306;2023-04-26T06:51:22;100231.94;;;5.12;82.13
56671;BME280;42545;50.054;8.306;2023-04-26T06:53:49;100224.53;;;5.23;81.67
56671;BME280;42545;50.054;8.306;2023-04-26T06:56:16;100232.00;;;5.35;82.39
56671;BME280;42545;50.054;8.306;2023-04-26T06:58:57;100225.38;;;5.45;80.52
56671;BME280;42545;50.054;8.306;2023-04-26T07:01:24;100228.22;;;5.51;80.45
56671;BME280;42545;50.054;8.306;2023-04-26T07:03:51;100232.94;;;5.59;79.73
56671;BME280;42545;50.054;8.306;2023-04-26T07:06:19;100230.81;;;5.72;79.37
56671;BME280;42545;50.054;8.306;2023-04-26T07:08:47;100232.16;;;5.85;79.05
56671;BME280;42545;50.054;8.306;2023-04-26T07:11:16;100236.88;;;5.93;78.15
56671;BME280;42545;50.054;8.306;2023-04-26T07:13:43;100233.56;;;5.97;76.49
56671;BME280;42545;50.054;8.306;2023-04-26T07:16:10;100242.84;;;6.12;77.95
56671;BME280;42545;50.054;8.306;2023-04-26T07:18:38;100230.19;;;6.24;76.69
56671;BME280;42545;50.054;8.306;2023-04-26T07:21:05;100228.78;;;6.34;76.06
56671;BME280;42545;50.054;8.306;2023-04-26T07:23:32;100230.84;;;6.43;72.58
56671;BME280;42545;50.054;8.306;2023-04-26T07:26:00;100228.63;;;6.53;72.03
56671;BME280;42545;50.054;8.306;2023-04-26T07:28:28;100222.06;;;6.66;71.43
56671;BME280;42545;50.054;8.306;2023-04-26T07:30:55;100223.22;;;6.74;69.69
56671;BME280;42545;50.054;8.306;2023-04-26T07:33:22;100227.84;;;6.82;70.57
56671;BME280;42545;50.054;8.306;2023-04-26T07:35:53;100229.25;;;6.98;70.04
56671;BME280;42545;50.054;8.306;2023-04-26T07:38:20;100221.75;;;7.08;69.48
56671;BME280;42545;50.054;8.306;2023-04-26T07:40:46;100223.72;;;7.16;67.85
56671;BME280;42545;50.054;8.306;2023-04-26T07:43:15;100220.47;;;7.24;65.79
56671;BME280;42545;50.054;8.306;2023-04-26T07:45:41;100219.75;;;7.28;65.47
56671;BME280;42545;50.054;8.306;2023-04-26T07:48:08;100216.69;;;7.42;66.53
56671;BME280;42545;50.054;8.306;2023-04-26T07:50:35;100215.31;;;7.55;66.08
56671;BME280;42545;50.054;8.306;2023-04-26T07:53:02;100212.16;;;7.66;64.73
56671;BME280;42545;50.054;8.306;2023-04-26T07:55:31;100214.34;;;7.80;66.47
56671;BME280;42545;50.054;8.306;2023-04-26T07:57:57;100212.97;;;7.93;64.68
56671;BME280;42545;50.054;8.306;2023-04-26T08:00:25;100216.91;;;8.07;64.75
56671;BME280;42545;50.054;8.306;2023-04-26T08:02:54;100210.00;;;8.12;62.50
56671;BME280;42545;50.054;8.306;2023-04-26T08:05:20;100202.28;;;8.17;62.69
56671;BME280;42545;50.054;8.306;2023-04-26T08:07:47;100216.81;;;8.34;62.77
56671;BME280;42545;50.054;8.306;2023-04-26T08:10:13;100211.84;;;8.45;59.55
56671;BME280;42545;50.054;8.306;2023-04-26T08:12:40;100225.03;;;8.46;58.37
56671;BME280;42545;50.054;8.306;2023-04-26T08:15:07;100203.22;;;8.49;59.21
56671;BME280;42545;50.054;8.306;2023-04-26T08:17:37;100216.75;;;8.64;58.14
56671;BME280;42545;50.054;8.306;2023-04-26T08:20:05;100221.38;;;8.73;57.50
56671;BME280;42545;50.054;8.306;2023-04-26T08:22:33;100222.06;;;8.66;58.18
56671;BME280;42545;50.054;8.306;2023-04-26T08:25:00;100213.28;;;8.65;60.18
56671;BME280;42545;50.054;8.306;2023-04-26T08:27:27;100210.13;;;8.79;59.96
56671;BME280;42545;50.054;8.306;2023-04-26T08:29:53;100209.34;;;8.83;59.42
56671;BME280;42545;50.054;8.306;2023-04-26T08:32:20;100210.25;;;8.83;59.26
56671;BME280;42545;50.054;8.306;2023-04-26T08:34:48;100211.75;;;8.74;59.67
56671;BME280;42545;50.054;8.306;2023-04-26T08:37:15;100208.72;;;8.58;56.92
56671;BME280;42545;50.054;8.306;2023-04-26T08:39:41;100209.19;;;8.43;56.13
56671;BME280;42545;50.054;8.306;2023-04-26T08:42:12;100212.53;;;8.38;57.78
56671;BME280;42545;50.054;8.306;2023-04-26T08:44:41;100218.44;;;8.31;55.91
56671;BME280;42545;50.054;8.306;2023-04-26T08:47:13;100212.16;;;8.25;55.86
56671;BME280;42545;50.054;8.306;2023-04-26T08:49:43;100205.13;;;8.24;56.77
56671;BME280;42545;50.054;8.306;2023-04-26T08:52:13;100205.94;;;8.22;55.08
56671;BME280;42545;50.054;8.306;2023-04-26T08:54:41;100209.41;;;8.21;55.96
56671;BME280;42545;50.054;8.306;2023-04-26T08:57:08;100207.69;;;8.21;55.70
56671;BME280;42545;50.054;8.306;2023-04-26T08:59:36;100208.50;;;8.20;54.90
56671;BME280;42545;50.054;8.306;2023-04-26T09:02:04;100206.97;;;8.27;55.92
56671;BME280;42545;50.054;8.306;2023-04-26T09:04:31;100208.00;;;8.34;56.95
56671;BME280;42545;50.054;8.306;2023-04-26T09:06:59;100202.16;;;8.42;57.23
56671;BME280;42545;50.054;8.306;2023-04-26T09:09:32;100212.06;;;8.53;58.41
56671;BME280;42545;50.054;8.306;2023-04-26T09:12:00;100201.72;;;8.59;58.88
56671;BME280;42545;50.054;8.306;2023-04-26T09:14:27;100199.28;;;8.66;58.94
56671;BME280;42545;50.054;8.306;2023-04-26T09:16:56;100204.72;;;8.73;58.05
56671;BME280;42545;50.054;8.306;2023-04-26T09:19:34;100194.34;;;8.79;58.23
56671;BME280;42545;50.054;8.306;2023-04-26T09:22:01;100195.34;;;8.84;55.09
56671;BME280;42545;50.054;8.306;2023-04-26T09:24:45;100193.75;;;8.89;55.85
56671;BME280;42545;50.054;8.306;2023-04-26T09:27:11;100193.88;;;8.95;56.96
56671;BME280;42545;50.054;8.306;2023-04-26T09:29:38;100194.09;;;9.04;56.16
56671;BME280;42545;50.054;8.306;2023-04-26T09:32:04;100187.31;;;9.14;55.86
56671;BME280;42545;50.054;8.306;2023-04-26T09:34:43;100174.31;;;9.20;55.36
56671;BME280;42545;50.054;8.306;2023-04-26T09:37:10;100173.75;;;9.34;55.16
56671;BME280;42545;50.054;8.306;2023-04-26T09:39:40;100178.47;;;9.49;54.07
56671;BME280;42545;50.054;8.306;2023-04-26T09:42:09;100175.06;;;9.54;52.51
56671;BME280;42545;50.054;8.306;2023-04-26T09:44:36;100175.72;;;9.42;50.06
56671;BME280;42545;50.054;8.306;2023-04-26T09:47:04;100169.44;;;9.37;50.49
56671;BME280;42545;50.054;8.306;2023-04-26T09:49:42;100168.44;;;9.32;50.44
56671;BME280;42545;50.054;8.306;2023-04-26T09:52:09;100177.25;;;9.33;51.84
56671;BME280;42545;50.054;8.306;2023-04-26T09:54:45;100179.94;;;9.36;52.67
56671;BME280;42545;50.054;8.306;2023-04-26T09:57:17;100168.41;;;9.31;51.44
56671;BME280;42545;50.054;8.306;2023-04-26T09:59:49;100177.25;;;9.34;52.41
56671;BME280;42545;50.054;8.306;2023-04-26T10:02:19;100174.63;;;9.33;51.97
56671;BME280;42545;50.054;8.306;2023-04-26T10:04:48;100181.63;;;9.34;52.11
56671;BME280;42545;50.054;8.306;2023-04-26T10:07:17;100174.66;;;9.36;52.96
56671;BME280;42545;50.054;8.306;2023-04-26T10:09:46;100170.47;;;9.44;53.96
56671;BME280;42545;50.054;8.306;2023-04-26T10:12:15;100169.75;;;9.51;52.90
56671;BME280;42545;50.054;8.306;2023-04-26T10:14:42;100174.31;;;9.58;53.42
56671;BME280;42545;50.054;8.306;2023-04-26T10:17:12;100172.66;;;9.63;54.00
56671;BME280;42545;50.054;8.306;2023-04-26T10:19:41;100175.31;;;9.65;53.32
56671;BME280;42545;50.054;8.306;2023-04-26T10:22:15;100174.56;;;9.71;53.80
56671;BME280;42545;50.054;8.306;2023-04-26T10:24:43;100165.09;;;9.79;53.05
56671;BME280;42545;50.054;8.306;2023-04-26T10:27:11;100167.81;;;9.82;53.73
56671;BME280;42545;50.054;8.306;2023-04-26T10:30:04;100158.03;;;9.78;50.88
56671;BME280;42545;50.054;8.306;2023-04-26T10:32:31;100165.97;;;9.79;51.73
56671;BME280;42545;50.054;8.306;2023-04-26T10:35:08;100156.31;;;9.78;51.22
56671;BME280;42545;50.054;8.306;2023-04-26T10:37:38;100161.56;;;9.80;51.70
56671;BME280;42545;50.054;8.306;2023-04-26T10:40:27;100158.41;;;9.96;52.21
56671;BME280;42545;50.054;8.306;2023-04-26T10:43:28;100161.44;;;10.15;52.08
56671;BME280;42545;50.054;8.306;2023-04-26T10:45:55;100148.59;;;10.32;52.57
56671;BME280;42545;50.054;8.306;2023-04-26T10:48:28;100132.97;;;10.43;51.31
56671;BME280;42545;50.054;8.306;2023-04-26T10:51:06;100141.81;;;10.45;49.56
56671;BME280;42545;50.054;8.306;2023-04-26T10:53:59;100128.59;;;10.43;49.69
56671;BME280;42545;50.054;8.306;2023-04-26T10:56:49;100130.22;;;10.36;48.32
56671;BME280;42545;50.054;8.306;2023-04-26T10:59:20;100129.16;;;10.28;47.48
56671;BME280;42545;50.054;8.306;2023-04-26T11:01:47;100137.75;;;10.18;48.53
56671;BME280;42545;50.054;8.306;2023-04-26T11:04:13;100134.25;;;10.19;49.30
56671;BME280;42545;50.054;8.306;2023-04-26T11:06:47;100133.31;;;10.15;48.72
56671;BME280;42545;50.054;8.306;2023-04-26T11:09:33;100130.72;;;10.17;48.11
56671;BME280;42545;50.054;8.306;2023-04-26T11:12:02;100121.88;;;10.15;48.53
56671;BME280;42545;50.054;8.306;2023-04-26T11:14:31;100122.09;;;10.27;48.82
56671;BME280;42545;50.054;8.306;2023-04-26T11:17:01;100124.91;;;10.33;48.71
56671;BME280;42545;50.054;8.306;2023-04-26T11:19:29;100116.25;;;10.41;47.97
56671;BME280;42545;50.054;8.306;2023-04-26T11:21:55;100117.22;;;10.47;47.55
56671;BME280;42545;50.054;8.306;2023-04-26T11:24:26;100108.44;;;10.47;47.57
56671;BME280;42545;50.054;8.306;2023-04-26T11:26:53;100102.25;;;10.45;47.05
56671;BME280;42545;50.054;8.306;2023-04-26T11:29:19;100104.78;;;10.40;46.67
56671;BME280;42545;50.054;8.306;2023-04-26T11:31:55;100112.63;;;10.35;47.18
56671;BME280;42545;50.054;8.306;2023-04-26T11:34:30;100112.41;;;10.25;46.96
56671;BME280;42545;50.054;8.306;2023-04-26T11:36:57;100112.28;;;10.18;47.48
56671;BME280;42545;50.054;8.306;2023-04-26T11:39:24;100112.19;;;10.14;46.92
56671;BME280;42545;50.054;8.306;2023-04-26T11:41:55;100110.28;;;10.07;47.13
56671;BME280;42545;50.054;8.306;2023-04-26T11:44:30;100111.94;;;10.01;47.38
56671;BME280;42545;50.054;8.306;2023-04-26T11:46:58;100108.47;;;10.03;47.55
56671;BME280;42545;50.054;8.306;2023-04-26T11:49:26;100101.56;;;10.11;48.12
56671;BME280;42545;50.054;8.306;2023-04-26T11:51:53;100092.22;;;10.27;47.72
56671;BME280;42545;50.054;8.306;2023-04-26T11:54:27;100092.38;;;10.34;47.55
56671;BME280;42545;50.054;8.306;2023-04-26T11:56:54;100093.56;;;10.52;47.21
56671;BME280;42545;50.054;8.306;2023-04-26T11:59:25;100089.47;;;10.71;45.88
56671;BME280;42545;50.054;8.306;2023-04-26T12:01:53;100092.38;;;10.86;46.84
56671;BME280;42545;50.054;8.306;2023-04-26T12:04:27;100094.47;;;11.09;47.06
56671;BME280;42545;50.054;8.306;2023-04-26T12:06:55;100090.19;;;11.15;46.48
56671;BME280;42545;50.054;8.306;2023-04-26T12:09:22;100083.25;;;11.24;47.17
56671;BME280;42545;50.054;8.306;2023-04-26T12:11:52;100083.25;;;11.25;45.87
56671;BME280;42545;50.054;8.306;2023-04-26T12:14:21;100093.06;;;11.34;45.52
56671;BME280;42545;50.054;8.306;2023-04-26T12:16:48;100087.88;;;11.42;45.21
56671;BME280;42545;50.054;8.306;2023-04-26T12:19:15;100078.44;;;11.61;45.47
56671;BME280;42545;50.054;8.306;2023-04-26T12:21:45;100081.19;;;11.70;44.67
56671;BME280;42545;50.054;8.306;2023-04-26T12:24:22;100082.97;;;11.71;44.36
56671;BME280;42545;50.054;8.306;2023-04-26T12:26:50;100080.34;;;11.72;43.87
56671;BME280;42545;50.054;8.306;2023-04-26T12:29:17;100077.66;;;11.66;45.32
56671;BME280;42545;50.054;8.306;2023-04-26T12:31:45;100081.31;;;11.81;45.80
56671;BME280;42545;50.054;8.306;2023-04-26T12:34:13;100076.28;;;11.98;45.31
56671;BME280;42545;50.054;8.306;2023-04-26T12:36:40;100079.00;;;12.05;43.73
56671;BME280;42545;50.054;8.306;2023-04-26T12:39:09;100080.81;;;12.11;43.64
56671;BME280;42545;50.054;8.306;2023-04-26T12:41:38;100079.97;;;12.12;41.19
56671;BME280;42545;50.054;8.306;2023-04-26T12:44:05;100077.28;;;12.09;43.11
56671;BME280;42545;50.054;8.306;2023-04-26T12:46:32;100074.78;;;12.26;44.35
56671;BME280;42545;50.054;8.306;2023-04-26T12:48:59;100074.84;;;12.29;43.73
56671;BME280;42545;50.054;8.306;2023-04-26T12:51:25;100059.00;;;12.32;44.50
56671;BME280;42545;50.054;8.306;2023-04-26T12:53:52;100069.66;;;12.43;44.73
56671;BME280;42545;50.054;8.306;2023-04-26T12:56:20;100062.66;;;12.49;44.85
56671;BME280;42545;50.054;8.306;2023-04-26T12:58:47;100060.03;;;12.51;43.79
56671;BME280;42545;50.054;8.306;2023-04-26T13:01:14;100060.91;;;12.48;44.90
56671;BME280;42545;50.054;8.306;2023-04-26T13:03:41;100066.19;;;12.47;44.95